sensor_id;sensor_type;location;lat;lon;timestamp;temperature;humidity
75824;DHT22;64457;51.976;9.834;2023-03-17T00:01:22;8.90;75.40
75824;DHT22;64457;51.976;9.834;2023-03-17T00:03:50;8.70;75.80
75824;DHT22;64457;51.976;9.834;2023-03-17T00:06:20;8.80;75.80
75824;DHT22;64457;51.976;9.834;2023-03-17T00:08:52;8.90;76.00
75824;DHT22;64457;51.976;9.834;2023-03-17T00:11:20;8.80;75.60
75824;DHT22;64457;51.976;9.834;2023-03-17T00:13:49;8.90;75.70
75824;DHT22;64457;51.976;9.834;2023-03-17T00:16:19;8.60;75.10
75824;DHT22;64457;51.976;9.834;2023-03-17T00:18:48;8.70;76.30
75824;DHT22;64457;51.976;9.834;2023-03-17T00:21:21;8.40;75.80
75824;DHT22;64457;51.976;9.834;2023-03-17T00:23:52;8.40;76.60
75824;DHT22;64457;51.976;9.834;2023-03-17T00:26:20;8.30;76.40
75824;DHT22;64457;51.976;9.834;2023-03-17T00:28:50;8.40;77.10
75824;DHT22;64457;51.976;9.834;2023-03-17T00:31:19;8.50;76.90
75824;DHT22;64457;51.976;9.834;2023-03-17T00:33:50;8.60;77.10
75824;DHT22;64457;51.976;9.834;2023-03-17T00:36:20;8.70;75.80
75824;DHT22;64457;51.976;9.834;2023-03-17T00:38:49;8.60;76.70
75824;DHT22;64457;51.976;9.834;2023-03-17T00:41:17;8.70;76.30
75824;DHT22;64457;51.976;9.834;2023-03-17T00:43:44;8.50;76.00
75824;DHT22;64457;51.976;9.834;2023-03-17T00:46:15;8.60;76.80
75824;DHT22;64457;51.976;9.834;2023-03-17T00:48:44;8.50;77.40
75824;DHT22;64457;51.976;9.834;2023-03-17T00:51:13;8.50;76.70
75824;DHT22;64457;51.976;9.834;2023-03-17T00:53:42;8.40;77.20
75824;DHT22;64457;51.976;9.834;2023-03-17T00:56:12;8.50;77.00
75824;DHT22;64457;51.976;9.834;2023-03-17T00:58:41;8.60;76.80
75824;DHT22;64457;51.976;9.834;2023-03-17T01:01:09;8.70;76.70
75824;DHT22;64457;51.976;9.834;2023-03-17T01:03:39;8.70;76.40
75824;DHT22;64457;51.976;9.834;2023-03-17T01:06:09;8.60;76.80
75824;DHT22;64457;51.976;9.834;2023-03-17T01:08:38;8.60;76.50
75824;DHT22;64457;51.976;9.834;2023-03-17T01:11:13;8.40;76.60
75824;DHT22;64457;51.976;9.834;2023-03-17T01:13:43;8.40;77.00
75824;DHT22;64457;51.976;9.834;2023-03-17T01:16:11;8.40;77.60
75824;DHT22;64457;51.976;9.834;2023-03-17T01:18:40;8.50;77.20
75824;DHT22;64457;51.976;9.834;2023-03-17T01:21:08;8.30;78.40
75824;DHT22;64457;51.976;9.834;2023-03-17T01:23:35;8.30;77.60
75824;DHT22;64457;51.976;9.834;2023-03-17T01:26:03;8.10;77.00
75824;DHT22;64457;51.976;9.834;2023-03-17T01:28:31;8.30;78.10
75824;DHT22;64457;51.976;9.834;2023-03-17T01:30:59;8.10;78.50
75824;DHT22;64457;51.976;9.834;2023-03-17T01:33:27;8.40;78.20
75824;DHT22;64457;51.976;9.834;2023-03-17T01:35:56;8.50;76.80
75824;DHT22;64457;51.976;9.834;2023-03-17T01:38:23;8.30;77.00
75824;DHT22;64457;51.976;9.834;2023-03-17T01:40:51;8.40;77.90
75824;DHT22;64457;51.976;9.834;2023-03-17T01:43:21;8.30;76.70
75824;DHT22;64457;51.976;9.834;2023-03-17T01:46:23;8.40;77.30
75824;DHT22;64457;51.976;9.834;2023-03-17T01:49:12;8.50;77.40
75824;DHT22;64457;51.976;9.834;2023-03-17T01:51:49;8.40;76.80
75824;DHT22;64457;51.976;9.834;2023-03-17T01:54:27;8.40;77.60
75824;DHT22;64457;51.976;9.834;2023-03-17T01:57:00;8.60;77.10
75824;DHT22;64457;51.976;9.834;2023-03-17T01:59:33;8.50;77.00
75824;DHT22;64457;51.976;9.834;2023-03-17T02:02:07;8.70;77.10
75824;DHT22;64457;51.976;9.834;2023-03-17T02:04:37;8.70;76.30
75824;DHT22;64457;51.976;9.834;2023-03-17T02:07:07;8.90;76.50
75824;DHT22;64457;51.976;9.834;2023-03-17T02:09:36;8.80;76.30
75824;DHT22;64457;51.976;9.834;2023-03-17T02:12:04;9.00;76.50
75824;DHT22;64457;51.976;9.834;2023-03-17T02:14:35;8.80;74.70
75824;DHT22;64457;51.976;9.834;2023-03-17T02:17:02;8.80;75.40
75824;DHT22;64457;51.976;9.834;2023-03-17T02:19:30;8.60;75.50
75824;DHT22;64457;51.976;9.834;2023-03-17T02:22:00;8.50;76.80
75824;DHT22;64457;51.976;9.834;2023-03-17T02:24:34;8.30;76.50
75824;DHT22;64457;51.976;9.834;2023-03-17T02:27:07;8.50;77.20
75824;DHT22;64457;51.976;9.834;2023-03-17T02:29:39;8.10;76.90
75824;DHT22;64457;51.976;9.834;2023-03-17T02:32:07;8.10;77.80
75824;DHT22;64457;51.976;9.834;2023-03-17T02:34:36;8.20;77.50
75824;DHT22;64457;51.976;9.834;2023-03-17T02:37:05;8.30;77.10
75824;DHT22;64457;51.976;9.834;2023-03-17T02:39:33;8.40;76.60
75824;DHT22;64457;51.976;9.834;2023-03-17T02:42:02;8.10;77.00
75824;DHT22;64457;51.976;9.834;2023-03-17T02:44:30;8.30;78.10
75824;DHT22;64457;51.976;9.834;2023-03-17T02:46:58;8.30;77.10
75824;DHT22;64457;51.976;9.834;2023-03-17T02:49:29;8.40;77.20
75824;DHT22;64457;51.976;9.834;2023-03-17T02:51:59;8.50;76.20
75824;DHT22;64457;51.976;9.834;2023-03-17T02:54:30;8.40;75.90
75824;DHT22;64457;51.976;9.834;2023-03-17T02:56:57;8.60;76.70
75824;DHT22;64457;51.976;9.834;2023-03-17T02:59:26;8.60;76.20
75824;DHT22;64457;51.976;9.834;2023-03-17T03:01:53;8.20;77.00
75824;DHT22;64457;51.976;9.834;2023-03-17T03:04:22;8.40;76.90
75824;DHT22;64457;51.976;9.834;2023-03-17T03:06:50;8.80;76.40
75824;DHT22;64457;51.976;9.834;2023-03-17T03:09:18;8.90;75.60
75824;DHT22;64457;51.976;9.834;2023-03-17T03:11:47;8.90;75.30
75824;DHT22;64457;51.976;9.834;2023-03-17T03:14:14;8.90;75.30
75824;DHT22;64457;51.976;9.834;2023-03-17T03:16:42;8.70;76.10
75824;DHT22;64457;51.976;9.834;2023-03-17T03:19:09;8.70;75.80
75824;DHT22;64457;51.976;9.834;2023-03-17T03:21:37;8.70;75.80
75824;DHT22;64457;51.976;9.834;2023-03-17T03:24:05;8.80;76.80
75824;DHT22;64457;51.976;9.834;2023-03-17T03:26:34;8.90;76.10
75824;DHT22;64457;51.976;9.834;2023-03-17T03:29:03;8.80;75.70
75824;DHT22;64457;51.976;9.834;2023-03-17T03:31:30;8.90;76.00
75824;DHT22;64457;51.976;9.834;2023-03-17T03:33:58;8.50;75.40
75824;DHT22;64457;51.976;9.834;2023-03-17T03:36:25;8.50;76.00
75824;DHT22;64457;51.976;9.834;2023-03-17T03:38:53;8.50;76.60
75824;DHT22;64457;51.976;9.834;2023-03-17T03:41:20;8.40;76.20
75824;DHT22;64457;51.976;9.834;2023-03-17T03:43:47;8.40;76.30
75824;DHT22;64457;51.976;9.834;2023-03-17T03:46:17;8.30;76.40
75824;DHT22;64457;51.976;9.834;2023-03-17T03:48:44;8.40;76.60
75824;DHT22;64457;51.976;9.834;2023-03-17T03:51:11;8.30;76.90
75824;DHT22;64457;51.976;9.834;2023-03-17T03:53:39;8.40;77.40
75824;DHT22;64457;51.976;9.834;2023-03-17T03:56:07;8.30;76.20
75824;DHT22;64457;51.976;9.834;2023-03-17T03:58:34;8.50;77.10
75824;DHT22;64457;51.976;9.834;2023-03-17T04:01:03;8.70;76.60
75824;DHT22;64457;51.976;9.834;2023-03-17T04:03:32;8.70;76.60
75824;DHT22;64457;51.976;9.834;2023-03-17T04:05:59;8.50;75.90
75824;DHT22;64457;51.976;9.834;2023-03-17T04:08:28;8.40;77.00
75824;DHT22;64457;51.976;9.834;2023-03-17T04:10:56;8.30;77.80
75824;DHT22;64457;51.976;9.834;2023-03-17T04:13:24;8.50;77.50
75824;DHT22;64457;51.976;9.834;2023-03-17T04:15:51;8.10;77.60
75824;DHT22;64457;51.976;9.834;2023-03-17T04:18:20;8.40;77.50
75824;DHT22;64457;51.976;9.834;2023-03-17T04:20:50;8.50;77.00
75824;DHT22;64457;51.976;9.834;2023-03-17T04:23:17;8.60;77.00
75824;DHT22;64457;51.976;9.834;2023-03-17T04:25:45;8.60;76.70
75824;DHT22;64457;51.976;9.834;2023-03-17T04:28:12;8.40;76.70
75824;DHT22;64457;51.976;9.834;2023-03-17T04:30:40;8.30;77.30
75824;DHT22;64457;51.976;9.834;2023-03-17T04:33:07;8.30;77.00
75824;DHT22;64457;51.976;9.834;2023-03-17T04:35:34;8.40;77.00
75824;DHT22;64457;51.976;9.834;2023-03-17T04:38:03;8.10;77.20
75824;DHT22;64457;51.976;9.834;2023-03-17T04:40:31;8.00;78.20
75824;DHT22;64457;51.976;9.834;2023-03-17T04:42:59;8.30;77.90
75824;DHT22;64457;51.976;9.834;2023-03-17T04:45:27;8.40;77.30
75824;DHT22;64457;51.976;9.834;2023-03-17T04:47:54;8.30;77.30
75824;DHT22;64457;51.976;9.834;2023-03-17T04:50:21;8.30;77.80
75824;DHT22;64457;51.976;9.834;2023-03-17T04:52:49;8.20;77.80
75824;DHT22;64457;51.976;9.834;2023-03-17T04:55:18;8.20;77.70
75824;DHT22;64457;51.976;9.834;2023-03-17T04:57:46;8.40;78.10
75824;DHT22;64457;51.976;9.834;2023-03-17T05:00:14;8.50;77.50
75824;DHT22;64457;51.976;9.834;2023-03-17T05:02:43;8.50;77.50
75824;DHT22;64457;51.976;9.834;2023-03-17T05:05:10;8.30;77.00
75824;DHT22;64457;51.976;9.834;2023-03-17T05:07:38;8.20;77.50
75824;DHT22;64457;51.976;9.834;2023-03-17T05:10:07;8.30;77.80
75824;DHT22;64457;51.976;9.834;2023-03-17T05:12:37;8.00;77.80
75824;DHT22;64457;51.976;9.834;2023-03-17T05:15:06;7.80;78.00
75824;DHT22;64457;51.976;9.834;2023-03-17T05:17:34;7.70;78.10
75824;DHT22;64457;51.976;9.834;2023-03-17T05:20:02;7.90;79.20
75824;DHT22;64457;51.976;9.834;2023-03-17T05:22:30;7.80;78.50
75824;DHT22;64457;51.976;9.834;2023-03-17T05:24:57;7.70;78.80
75824;DHT22;64457;51.976;9.834;2023-03-17T05:27:25;7.80;78.70
75824;DHT22;64457;51.976;9.834;2023-03-17T05:29:53;8.20;78.50
75824;DHT22;64457;51.976;9.834;2023-03-17T05:32:21;8.30;77.60
75824;DHT22;64457;51.976;9.834;2023-03-17T05:34:48;8.30;77.40
75824;DHT22;64457;51.976;9.834;2023-03-17T05:37:18;8.40;77.60
75824;DHT22;64457;51.976;9.834;2023-03-17T05:39:45;8.40;78.20
75824;DHT22;64457;51.976;9.834;2023-03-17T05:42:13;8.40;77.50
75824;DHT22;64457;51.976;9.834;2023-03-17T05:44:40;8.30;77.50
75824;DHT22;64457;51.976;9.834;2023-03-17T05:47:09;8.00;77.50
75824;DHT22;64457;51.976;9.834;2023-03-17T05:49:36;7.80;78.20
75824;DHT22;64457;51.976;9.834;2023-03-17T05:52:04;8.10;79.00
75824;DHT22;64457;51.976;9.834;2023-03-17T05:54:31;8.30;78.10
75824;DHT22;64457;51.976;9.834;2023-03-17T05:56:59;8.50;77.30
75824;DHT22;64457;51.976;9.834;2023-03-17T05:59:27;8.80;76.90
75824;DHT22;64457;51.976;9.834;2023-03-17T06:01:55;8.60;76.20
75824;DHT22;64457;51.976;9.834;2023-03-17T06:04:24;8.50;76.40
75824;DHT22;64457;51.976;9.834;2023-03-17T06:06:51;8.40;76.80
75824;DHT22;64457;51.976;9.834;2023-03-17T06:09:19;8.10;77.80
75824;DHT22;64457;51.976;9.834;2023-03-17T06:11:46;8.20;77.80
